Terminal Aerodrome Forecast
Issued by NWS Huntsville, AL

Home | Current Version | Previous Version | Text Only | Print | Product List | Glossary On
Versions: 1 2 3 4 5 6 7 8 9 10 11 12 13 14 15 16 17 18 19 20 21 22 23 24
000
FTUS44 KHUN 292320
TAFHSV
TAF
KHSV 292320Z 3000/3024 33010KT P6SM FEW040 BKN060
     FM300200 35006KT P6SM SCT050
     FM300900 31003KT 5SM BR OVC020
     FM301400 29005KT P6SM BKN040=

USA.gov is the U.S. government's official web portal to all federal, state and local government web resources and services.